createdAt,value
2023-03-11T00:00:18.530Z,0.90
2023-03-11T00:02:46.987Z,1.27
2023-03-11T00:05:22.305Z,0.85
2023-03-11T00:07:49.804Z,1.20
2023-03-11T00:10:19.448Z,1.02
2023-03-11T00:12:45.883Z,1.35
2023-03-11T00:15:13.160Z,1.35
2023-03-11T00:17:40.165Z,1.20
2023-03-11T00:20:08.697Z,1.00
2023-03-11T00:22:35.139Z,1.25
2023-03-11T00:25:01.811Z,2.20
2023-03-11T00:27:28.468Z,0.85
2023-03-11T00:29:54.823Z,1.75
2023-03-11T00:32:21.290Z,1.38
2023-03-11T00:34:47.699Z,1.50
2023-03-11T00:37:14.364Z,1.73
2023-03-11T00:39:40.724Z,2.00
2023-03-11T00:42:07.763Z,2.55
2023-03-11T00:44:34.108Z,1.80
2023-03-11T00:47:00.475Z,1.13
2023-03-11T00:49:26.917Z,1.38
2023-03-11T00:51:53.495Z,2.20
2023-03-11T00:54:21.221Z,2.22
2023-03-11T00:56:47.610Z,2.10
2023-03-11T00:59:13.980Z,2.10
2023-03-11T01:01:40.382Z,2.10
2023-03-11T01:04:06.945Z,3.22
2023-03-11T01:06:44.855Z,1.58
2023-03-11T01:09:11.847Z,1.98
2023-03-11T01:11:38.303Z,1.98
2023-03-11T01:14:04.772Z,1.60
2023-03-11T01:16:31.292Z,1.70
2023-03-11T01:18:57.630Z,3.20
2023-03-11T01:21:23.951Z,1.98
2023-03-11T01:23:50.290Z,1.63
2023-03-11T01:26:16.678Z,2.25
2023-03-11T01:28:43.148Z,0.93
2023-03-11T01:31:10.302Z,1.40
2023-03-11T01:33:36.892Z,1.33
2023-03-11T01:36:03.518Z,0.98
2023-03-11T01:38:30.024Z,1.52
2023-03-11T01:40:56.437Z,1.30
2023-03-11T01:43:43.481Z,2.33
2023-03-11T01:46:26.226Z,2.55
2023-03-11T01:49:03.880Z,1.98
2023-03-11T01:51:35.726Z,2.42
2023-03-11T01:54:06.916Z,2.08
2023-03-11T01:56:35.229Z,1.42
2023-03-11T01:59:01.831Z,1.60
2023-03-11T02:01:29.027Z,1.80
2023-03-11T02:03:57.705Z,2.17
2023-03-11T02:06:25.642Z,1.77
2023-03-11T02:08:52.134Z,1.88
2023-03-11T02:11:24.932Z,2.45
2023-03-11T02:13:54.240Z,2.42
2023-03-11T02:16:20.663Z,2.28
2023-03-11T02:18:47.076Z,2.67
2023-03-11T02:21:28.703Z,2.28
2023-03-11T02:24:07.558Z,2.40
2023-03-11T02:26:52.240Z,2.83
2023-03-11T02:29:21.233Z,2.67
2023-03-11T02:31:48.810Z,3.38
2023-03-11T02:34:25.285Z,2.60
2023-03-11T02:36:51.717Z,3.38
2023-03-11T02:39:30.262Z,2.67
2023-03-11T02:41:57.326Z,2.95
2023-03-11T02:44:24.201Z,3.22
2023-03-11T02:46:51.080Z,2.42
2023-03-11T02:49:18.518Z,2.67
2023-03-11T02:51:44.941Z,2.70
2023-03-11T02:54:11.334Z,2.63
2023-03-11T02:56:37.740Z,2.95
2023-03-11T02:59:04.127Z,2.80
2023-03-11T03:01:30.635Z,3.33
2023-03-11T03:03:57.504Z,2.88
2023-03-11T03:06:24.961Z,2.63
2023-03-11T03:08:51.375Z,2.90
2023-03-11T03:11:17.721Z,3.45
2023-03-11T03:13:44.221Z,2.45
2023-03-11T03:16:10.631Z,3.13
2023-03-11T03:18:38.002Z,3.30
2023-03-11T03:21:05.101Z,3.25
2023-03-11T03:23:35.174Z,2.95
2023-03-11T03:26:02.311Z,2.72
2023-03-11T03:28:28.762Z,2.88
2023-03-11T03:30:55.165Z,3.92
2023-03-11T03:33:21.628Z,4.30
2023-03-11T03:35:48.807Z,4.85
2023-03-11T03:38:15.248Z,4.45
2023-03-11T03:40:46.485Z,5.57
2023-03-11T03:43:12.909Z,5.43
2023-03-11T03:45:39.364Z,4.88
2023-03-11T03:48:06.430Z,6.60
2023-03-11T03:50:32.850Z,7.25
2023-03-11T03:52:59.204Z,6.63
2023-03-11T03:55:25.556Z,6.97
2023-03-11T03:57:51.900Z,7.13
2023-03-11T04:00:20.014Z,6.28
2023-03-11T04:02:46.352Z,7.97
2023-03-11T04:05:12.797Z,7.25
2023-03-11T04:07:39.228Z,7.10
2023-03-11T04:10:06.378Z,7.68
2023-03-11T04:12:33.092Z,7.28
2023-03-11T04:14:59.464Z,8.07
2023-03-11T04:17:25.857Z,6.55
2023-03-11T04:19:52.221Z,9.30
2023-03-11T04:22:18.621Z,7.82
2023-03-11T04:24:44.964Z,7.93
2023-03-11T04:27:11.303Z,8.27
2023-03-11T04:29:37.773Z,9.48
2023-03-11T04:32:04.438Z,9.38
2023-03-11T04:34:30.817Z,9.27
2023-03-11T04:36:57.159Z,9.55
2023-03-11T04:39:23.636Z,11.13
2023-03-11T04:41:50.057Z,9.05
2023-03-11T04:44:16.442Z,9.50
2023-03-11T04:46:43.169Z,10.13
2023-03-11T04:49:10.322Z,10.13
2023-03-11T04:51:36.833Z,8.05
2023-03-11T04:54:03.445Z,10.40
2023-03-11T04:56:30.058Z,8.25
2023-03-11T04:58:56.386Z,9.77
2023-03-11T05:01:22.815Z,8.73
2023-03-11T05:03:49.236Z,9.38
2023-03-11T05:06:15.609Z,8.43
2023-03-11T05:08:41.978Z,9.10
2023-03-11T05:11:08.815Z,8.15
2023-03-11T05:13:35.421Z,8.73
2023-03-11T05:16:01.781Z,8.10
2023-03-11T05:18:28.502Z,7.70
2023-03-11T05:20:54.892Z,7.20
2023-03-11T05:23:21.229Z,6.53
2023-03-11T05:25:47.595Z,8.88
2023-03-11T05:28:14.971Z,8.48
2023-03-11T05:30:41.396Z,8.43
2023-03-11T05:33:07.955Z,8.90
2023-03-11T05:35:34.456Z,8.55
2023-03-11T05:38:00.822Z,7.78
2023-03-11T05:40:27.329Z,8.73
2023-03-11T05:42:53.713Z,9.32
2023-03-11T05:45:20.426Z,7.85
2023-03-11T05:47:46.789Z,8.60
2023-03-11T05:50:13.231Z,8.88
2023-03-11T05:52:39.636Z,8.35
2023-03-11T05:55:06.369Z,8.75
2023-03-11T05:57:32.707Z,10.07
2023-03-11T06:00:00.178Z,9.38
2023-03-11T06:02:26.628Z,9.50
2023-03-11T06:04:53.297Z,9.73
2023-03-11T06:07:19.863Z,8.15
2023-03-11T06:09:46.265Z,10.18
2023-03-11T06:12:12.637Z,10.23
2023-03-11T06:14:39.046Z,10.40
2023-03-11T06:17:05.525Z,9.95
2023-03-11T06:19:31.998Z,10.52
2023-03-11T06:21:58.390Z,12.02
2023-03-11T06:24:24.809Z,12.63
2023-03-11T06:26:52.580Z,10.05
2023-03-11T06:29:19.541Z,12.38
2023-03-11T06:31:45.996Z,9.70
2023-03-11T06:34:12.504Z,10.85
2023-03-11T06:36:38.871Z,11.63
2023-03-11T06:39:05.303Z,13.48
2023-03-11T06:41:34.253Z,12.65
2023-03-11T06:44:00.694Z,12.27
2023-03-11T06:46:27.051Z,13.80
2023-03-11T06:48:54.326Z,13.43
2023-03-11T06:51:21.477Z,12.38
2023-03-11T06:53:52.653Z,14.75
2023-03-11T06:56:20.714Z,12.32
2023-03-11T06:58:47.250Z,13.57
2023-03-11T07:01:15.119Z,13.35
2023-03-11T07:03:42.116Z,14.18
2023-03-11T07:06:14.063Z,11.63
2023-03-11T07:08:40.995Z,13.73
2023-03-11T07:11:10.618Z,12.00
2023-03-11T07:13:37.214Z,14.73
2023-03-11T07:16:10.279Z,13.30
2023-03-11T07:18:37.070Z,14.23
2023-03-11T07:21:05.602Z,16.05
2023-03-11T07:23:32.786Z,15.57
2023-03-11T07:25:59.262Z,15.60
2023-03-11T07:28:27.864Z,15.60
2023-03-11T07:30:55.048Z,14.38
2023-03-11T07:33:24.042Z,14.10
2023-03-11T07:35:51.025Z,15.45
2023-03-11T07:38:18.164Z,12.02
2023-03-11T07:40:44.686Z,11.65
2023-03-11T07:43:11.283Z,13.85
2023-03-11T07:45:37.820Z,13.70
2023-03-11T07:48:04.668Z,13.48
2023-03-11T07:50:31.054Z,12.65
2023-03-11T07:52:57.525Z,15.98
2023-03-11T07:55:24.015Z,20.77
2023-03-11T07:57:51.591Z,15.15
2023-03-11T08:00:18.566Z,16.08
2023-03-11T08:02:44.927Z,12.55
2023-03-11T08:05:11.544Z,13.65
2023-03-11T08:07:38.273Z,12.75
2023-03-11T08:10:04.868Z,12.50
2023-03-11T08:12:31.207Z,15.82
2023-03-11T08:14:57.572Z,17.73
2023-03-11T08:17:23.959Z,15.40
2023-03-11T08:19:50.437Z,12.05
2023-03-11T08:22:16.817Z,15.98
2023-03-11T08:24:43.167Z,14.02
2023-03-11T08:27:09.960Z,19.67
2023-03-11T08:29:36.343Z,12.45
2023-03-11T08:32:03.833Z,16.60
2023-03-11T08:34:30.266Z,16.50
2023-03-11T08:36:56.849Z,11.00
2023-03-11T08:39:23.915Z,15.35
2023-03-11T08:41:50.283Z,15.18
2023-03-11T08:44:16.670Z,16.13
2023-03-11T08:46:43.136Z,15.27
2023-03-11T08:49:09.974Z,13.23
2023-03-11T08:51:36.780Z,15.10
2023-03-11T08:54:04.300Z,14.48
2023-03-11T08:56:30.869Z,13.45
2023-03-11T08:58:57.424Z,14.02
2023-03-11T09:01:23.930Z,12.65
2023-03-11T09:03:50.377Z,23.80
2023-03-11T09:06:17.646Z,18.38
2023-03-11T09:08:45.681Z,11.80
2023-03-11T09:11:13.485Z,13.63
2023-03-11T09:13:44.021Z,13.25
2023-03-11T09:16:18.870Z,15.23
2023-03-11T09:18:45.640Z,15.85
2023-03-11T09:21:12.859Z,15.65
2023-03-11T09:23:41.585Z,14.50
2023-03-11T09:28:35.635Z,14.60
2023-03-11T09:31:02.194Z,15.80
2023-03-11T09:33:28.731Z,17.15
2023-03-11T09:35:55.203Z,15.77
2023-03-11T09:38:21.694Z,15.00
2023-03-11T09:41:07.656Z,17.85
2023-03-11T09:43:55.973Z,16.58
2023-03-11T09:46:51.031Z,15.85
2023-03-11T09:49:38.072Z,17.60
2023-03-11T09:52:12.093Z,16.42
2023-03-11T09:54:42.618Z,15.80
2023-03-11T09:57:14.499Z,15.23
2023-03-11T09:59:43.722Z,16.65
2023-03-11T10:02:16.311Z,12.15
2023-03-11T10:04:56.794Z,12.60
2023-03-11T10:07:33.773Z,13.35
2023-03-11T10:10:00.306Z,11.63
2023-03-11T10:12:52.549Z,14.35
2023-03-11T10:15:48.313Z,15.05
2023-03-11T10:18:32.850Z,13.52
2023-03-11T10:21:17.930Z,12.25
2023-03-11T10:24:14.407Z,16.25
2023-03-11T10:26:45.876Z,15.30
2023-03-11T10:29:21.496Z,13.82
2023-03-11T10:32:07.313Z,13.48
2023-03-11T10:34:45.741Z,12.85
2023-03-11T10:37:18.646Z,13.05
2023-03-11T10:39:48.371Z,9.73
2023-03-11T10:42:27.995Z,13.93
2023-03-11T10:44:54.387Z,13.10
2023-03-11T10:47:23.081Z,11.88
2023-03-11T10:49:50.573Z,13.63
2023-03-11T10:52:17.050Z,13.13
2023-03-11T10:54:47.800Z,15.35
2023-03-11T10:57:34.034Z,12.82
2023-03-11T11:00:09.529Z,10.70
2023-03-11T11:02:49.485Z,11.10
2023-03-11T11:05:18.827Z,11.20
2023-03-11T11:07:46.969Z,10.77
2023-03-11T11:10:15.340Z,12.35
2023-03-11T11:12:56.222Z,12.13
2023-03-11T11:15:34.999Z,12.43
2023-03-11T11:18:19.472Z,13.23
2023-03-11T11:21:02.363Z,11.93
2023-03-11T11:23:38.990Z,8.32
2023-03-11T11:26:16.420Z,11.23
2023-03-11T11:28:43.003Z,10.20
2023-03-11T11:31:26.161Z,9.90
2023-03-11T11:33:55.465Z,9.73
2023-03-11T11:36:34.479Z,10.48
2023-03-11T11:39:05.061Z,11.57
2023-03-11T11:41:35.312Z,11.65
2023-03-11T11:44:06.522Z,9.82
2023-03-11T11:46:49.173Z,11.65
2023-03-11T11:49:20.928Z,12.00
2023-03-11T11:52:12.728Z,11.85
2023-03-11T11:54:50.198Z,11.25
2023-03-11T11:57:19.653Z,11.63
2023-03-11T11:59:47.128Z,9.63
2023-03-11T12:02:19.621Z,11.90
2023-03-11T12:05:09.771Z,12.75
2023-03-11T12:07:52.447Z,10.52
2023-03-11T12:11:05.006Z,11.45
2023-03-11T12:14:02.032Z,10.70
2023-03-11T12:16:52.517Z,9.57
2023-03-11T12:19:34.356Z,10.57
2023-03-11T12:22:29.098Z,10.50
2023-03-11T12:27:34.255Z,9.60
2023-03-11T12:30:13.151Z,11.40
2023-03-11T12:32:50.208Z,9.77
2023-03-11T12:35:29.979Z,10.40
2023-03-11T12:38:04.651Z,9.38
2023-03-11T12:40:43.515Z,8.25
2023-03-11T12:43:25.164Z,8.43
2023-03-11T12:45:53.591Z,9.00
2023-03-11T12:48:49.712Z,9.95
2023-03-11T12:51:31.570Z,10.68
2023-03-11T12:53:58.017Z,8.32
2023-03-11T12:56:42.349Z,7.72
2023-03-11T12:59:39.623Z,8.20
2023-03-11T13:02:31.135Z,8.23
2023-03-11T13:05:25.690Z,8.43
2023-03-11T13:08:15.758Z,11.55
2023-03-11T13:10:47.272Z,9.98
2023-03-11T13:13:39.246Z,12.50
2023-03-11T13:16:14.979Z,12.10
2023-03-11T13:18:43.376Z,11.98
2023-03-11T13:21:27.942Z,10.85
2023-03-11T13:24:19.611Z,12.90
2023-03-11T13:27:04.381Z,13.02
2023-03-11T13:29:51.931Z,11.13
2023-03-11T13:32:44.934Z,10.60
2023-03-11T13:35:59.644Z,11.90
2023-03-11T13:38:50.587Z,8.02
2023-03-11T13:41:30.211Z,8.52
2023-03-11T13:44:09.631Z,9.38
2023-03-11T13:46:38.676Z,10.05
2023-03-11T13:49:16.727Z,9.18
2023-03-11T13:51:45.442Z,17.20
2023-03-11T13:54:19.883Z,9.27
2023-03-11T13:56:54.861Z,10.75
2023-03-11T13:59:27.588Z,7.82
2023-03-11T14:02:00.165Z,7.43
2023-03-11T14:04:36.033Z,7.22
2023-03-11T14:07:35.449Z,7.28
2023-03-11T14:10:24.283Z,9.15
2023-03-11T14:12:51.337Z,8.38
2023-03-11T14:15:26.858Z,7.57
2023-03-11T14:17:54.291Z,8.52
2023-03-11T14:20:25.020Z,8.60
2023-03-11T14:22:53.917Z,9.52
2023-03-11T14:25:36.286Z,8.77
2023-03-11T14:28:04.790Z,8.57
2023-03-11T14:30:34.046Z,9.20
2023-03-11T14:33:20.502Z,10.18
2023-03-11T14:35:55.913Z,8.60
2023-03-11T14:38:28.583Z,7.32
2023-03-11T14:40:57.734Z,9.10
2023-03-11T14:43:24.430Z,9.80
2023-03-11T14:45:52.580Z,7.65
2023-03-11T14:48:21.863Z,8.85
2023-03-11T14:50:49.573Z,9.13
2023-03-11T14:53:32.879Z,7.45
2023-03-11T14:56:02.554Z,9.57
2023-03-11T14:58:46.423Z,8.90
2023-03-11T15:01:24.196Z,10.50
2023-03-11T15:03:56.200Z,10.85
2023-03-11T15:06:28.413Z,7.88
2023-03-11T15:09:08.069Z,7.75
2023-03-11T15:11:55.008Z,8.93
2023-03-11T15:14:25.791Z,7.15
2023-03-11T15:17:08.311Z,8.40
2023-03-11T15:19:34.743Z,9.05
2023-03-11T15:22:24.237Z,7.40
2023-03-11T15:24:53.026Z,8.02
2023-03-11T15:27:29.411Z,9.27
2023-03-11T15:29:56.888Z,8.88
2023-03-11T15:32:40.522Z,7.15
2023-03-11T15:35:13.023Z,7.32
2023-03-11T15:37:41.201Z,7.75
2023-03-11T15:40:35.256Z,7.50
2023-03-11T15:43:27.746Z,8.25
2023-03-11T15:45:56.284Z,5.72
2023-03-11T15:48:23.221Z,8.73
2023-03-11T15:50:58.423Z,9.77
2023-03-11T15:53:26.307Z,7.82
2023-03-11T15:55:54.508Z,9.00
2023-03-11T15:58:21.640Z,8.52
2023-03-11T16:00:54.003Z,7.00
2023-03-11T16:03:20.730Z,7.43
2023-03-11T16:05:47.531Z,8.02
2023-03-11T16:08:14.101Z,8.68
2023-03-11T16:10:40.894Z,8.95
2023-03-11T16:13:09.919Z,9.60
2023-03-11T16:15:37.920Z,8.15
2023-03-11T16:18:07.499Z,7.00
2023-03-11T16:20:44.680Z,8.93
2023-03-11T16:23:18.814Z,8.40
2023-03-11T16:25:45.719Z,9.30
2023-03-11T16:28:14.551Z,8.60
2023-03-11T16:30:41.336Z,9.15
2023-03-11T16:33:07.933Z,10.23
2023-03-11T16:35:34.605Z,8.13
2023-03-11T16:38:01.306Z,8.63
2023-03-11T16:40:28.834Z,9.15
2023-03-11T16:43:00.318Z,8.35
2023-03-11T16:45:27.177Z,7.40
2023-03-11T16:47:53.608Z,8.98
2023-03-11T16:50:20.913Z,8.30
2023-03-11T16:52:47.624Z,11.48
2023-03-11T16:55:14.018Z,10.07
2023-03-11T16:57:40.457Z,8.05
2023-03-11T17:00:09.725Z,8.30
2023-03-11T17:02:37.067Z,9.43
2023-03-11T17:05:05.136Z,8.32
2023-03-11T17:07:32.230Z,10.38
2023-03-11T17:09:59.861Z,10.45
2023-03-11T17:12:26.628Z,10.25
2023-03-11T17:14:53.779Z,9.43
2023-03-11T17:17:21.179Z,10.55
2023-03-11T17:19:47.548Z,11.95
2023-03-11T17:22:14.558Z,12.00
2023-03-11T17:24:41.098Z,9.73
2023-03-11T17:27:07.633Z,10.52
2023-03-11T17:29:34.190Z,12.10
2023-03-11T17:32:01.637Z,10.95
2023-03-11T17:34:28.299Z,12.27
2023-03-11T17:36:56.013Z,12.68
2023-03-11T17:39:22.481Z,11.10
2023-03-11T17:41:49.145Z,10.20
2023-03-11T17:44:15.484Z,9.18
2023-03-11T17:46:41.952Z,12.85
2023-03-11T17:49:12.990Z,9.65
2023-03-11T17:51:39.383Z,9.63
2023-03-11T17:54:06.493Z,10.02
2023-03-11T17:56:32.853Z,9.60
2023-03-11T17:58:59.474Z,8.82
2023-03-11T18:01:28.018Z,13.00
2023-03-11T18:03:54.819Z,9.75
2023-03-11T18:06:21.760Z,9.63
2023-03-11T18:08:48.572Z,9.13
2023-03-11T18:11:19.038Z,10.82
2023-03-11T18:13:45.934Z,9.23
2023-03-11T18:16:15.070Z,8.23
2023-03-11T18:18:42.430Z,10.43
2023-03-11T18:21:14.780Z,10.63
2023-03-11T18:23:41.895Z,9.73
2023-03-11T18:26:11.306Z,8.90
2023-03-11T18:28:39.374Z,9.40
2023-03-11T18:31:14.470Z,31.85
2023-03-11T18:33:42.051Z,10.18
2023-03-11T18:36:36.498Z,9.50
2023-03-11T18:39:04.804Z,11.18
2023-03-11T18:41:33.992Z,8.95
2023-03-11T18:44:00.942Z,8.52
2023-03-11T18:46:31.482Z,11.00
2023-03-11T18:48:59.365Z,9.75
2023-03-11T18:51:28.044Z,12.07
2023-03-11T18:53:54.701Z,12.50
2023-03-11T18:56:21.209Z,11.77
2023-03-11T18:58:47.584Z,12.50
2023-03-11T19:01:19.071Z,12.27
2023-03-11T19:03:50.728Z,11.18
2023-03-11T19:06:17.207Z,11.55
2023-03-11T19:08:43.738Z,11.43
2023-03-11T19:11:12.696Z,12.27
2023-03-11T19:13:46.615Z,13.35
2023-03-11T19:16:15.009Z,19.17
2023-03-11T19:18:41.553Z,14.77
2023-03-11T19:21:10.380Z,14.23
2023-03-11T19:23:36.798Z,15.13
2023-03-11T19:26:03.815Z,14.40
2023-03-11T19:28:30.302Z,14.80
2023-03-11T19:30:58.514Z,18.20
2023-03-11T19:33:25.439Z,18.42
2023-03-11T19:35:53.395Z,14.38
2023-03-11T19:38:20.412Z,14.25
2023-03-11T19:40:51.563Z,14.40
2023-03-11T19:43:19.197Z,18.65
2023-03-11T19:45:49.507Z,15.40
2023-03-11T19:48:16.933Z,17.17
2023-03-11T19:50:43.698Z,16.48
2023-03-11T19:53:10.113Z,14.20
2023-03-11T19:55:36.552Z,15.82
2023-03-11T19:58:03.062Z,15.73
2023-03-11T20:00:30.505Z,15.98
2023-03-11T20:02:57.106Z,16.45
2023-03-11T20:05:23.527Z,18.25
2023-03-11T20:07:49.885Z,14.90
2023-03-11T20:10:17.590Z,17.65
2023-03-11T20:12:59.672Z,15.73
2023-03-11T20:15:28.361Z,18.17
2023-03-11T20:17:54.785Z,15.57
2023-03-11T20:20:21.786Z,17.90
2023-03-11T20:22:48.535Z,18.35
2023-03-11T20:25:16.108Z,14.65
2023-03-11T20:27:42.895Z,20.13
2023-03-11T20:30:09.990Z,17.63
2023-03-11T20:32:36.381Z,24.85
2023-03-11T20:35:03.302Z,15.90
2023-03-11T20:37:30.561Z,15.57
2023-03-11T20:39:57.228Z,15.68
2023-03-11T20:42:23.950Z,16.45
2023-03-11T20:44:54.567Z,15.32
2023-03-11T20:47:21.079Z,15.60
2023-03-11T20:49:47.487Z,14.40
2023-03-11T20:52:13.981Z,15.25
2023-03-11T20:54:40.605Z,13.75
2023-03-11T20:57:07.649Z,12.70
2023-03-11T20:59:34.145Z,15.30
2023-03-11T21:02:00.722Z,13.25
2023-03-11T21:04:27.460Z,12.63
2023-03-11T21:06:55.293Z,15.15
2023-03-11T21:09:21.805Z,13.45
2023-03-11T21:11:48.209Z,12.25
2023-03-11T21:14:16.823Z,14.38
2023-03-11T21:16:45.328Z,13.32
2023-03-11T21:19:13.344Z,14.25
2023-03-11T21:21:40.300Z,13.25
2023-03-11T21:24:07.019Z,11.68
2023-03-11T21:26:34.724Z,13.65
2023-03-11T21:29:01.148Z,13.07
2023-03-11T21:31:29.465Z,12.30
2023-03-11T21:33:58.557Z,16.85
2023-03-11T21:36:25.109Z,13.55
2023-03-11T21:38:51.783Z,11.75
2023-03-11T21:41:21.401Z,12.55
2023-03-11T21:43:48.050Z,13.10
2023-03-11T21:46:17.149Z,11.80
2023-03-11T21:48:44.609Z,15.60
2023-03-11T21:51:11.370Z,10.57
2023-03-11T21:53:38.130Z,10.60
2023-03-11T21:56:05.016Z,14.77
2023-03-11T21:58:32.310Z,10.13
2023-03-11T22:00:59.319Z,13.50
2023-03-11T22:03:26.067Z,13.50
2023-03-11T22:05:59.483Z,13.93
2023-03-11T22:08:26.734Z,14.43
2023-03-11T22:10:53.744Z,12.68
2023-03-11T22:13:21.015Z,12.80
2023-03-11T22:15:47.945Z,14.63
2023-03-11T22:18:14.441Z,11.88
2023-03-11T22:20:41.948Z,14.05
2023-03-11T22:23:08.580Z,11.82
2023-03-11T22:25:35.044Z,12.00
2023-03-11T22:28:01.417Z,12.75
2023-03-11T22:30:27.760Z,13.73
2023-03-11T22:32:54.221Z,13.20
2023-03-11T22:35:20.627Z,13.80
2023-03-11T22:37:46.983Z,13.02
2023-03-11T22:40:13.416Z,12.30
2023-03-11T22:42:39.810Z,11.15
2023-03-11T22:45:07.404Z,14.32
2023-03-11T22:47:33.987Z,12.82
2023-03-11T22:50:00.371Z,12.88
2023-03-11T22:52:26.743Z,11.25
2023-03-11T22:54:53.178Z,13.75
2023-03-11T22:57:19.642Z,12.25
2023-03-11T22:59:46.082Z,10.32
2023-03-11T23:02:12.434Z,9.45
2023-03-11T23:04:38.794Z,10.13
2023-03-11T23:07:05.240Z,12.38
2023-03-11T23:09:31.596Z,8.38
2023-03-11T23:11:57.958Z,9.75
2023-03-11T23:14:33.986Z,10.95
2023-03-11T23:17:10.474Z,10.90
2023-03-11T23:19:36.943Z,8.43
2023-03-11T23:22:03.398Z,10.30
2023-03-11T23:24:29.837Z,11.10
2023-03-11T23:26:56.201Z,10.45
2023-03-11T23:29:22.598Z,9.63
2023-03-11T23:31:48.999Z,10.85
2023-03-11T23:34:15.322Z,10.05
2023-03-11T23:36:41.687Z,10.63
2023-03-11T23:39:08.106Z,8.30
2023-03-11T23:41:35.824Z,10.82
2023-03-11T23:44:02.181Z,11.20
2023-03-11T23:46:28.590Z,10.50
2023-03-11T23:48:54.970Z,9.43
2023-03-11T23:51:21.456Z,11.35
2023-03-11T23:53:47.819Z,10.23
2023-03-11T23:56:17.320Z,10.35
2023-03-11T23:58:44.500Z,7.97
